sensor_id;sensor_type;location;lat;lon;timestamp;pressure;altitude;pressure_sealevel;temperature;humidity
75692;BME280;64307;52.508;6.090;2023-07-13T00:01:50;101243.78;;;17.06;82.64
75692;BME280;64307;52.508;6.090;2023-07-13T00:04:17;101244.50;;;17.10;82.87
75692;BME280;64307;52.508;6.090;2023-07-13T00:06:44;101255.31;;;17.12;82.73
75692;BME280;64307;52.508;6.090;2023-07-13T00:09:13;101243.53;;;16.97;83.25
75692;BME280;64307;52.508;6.090;2023-07-13T00:11:40;101256.56;;;17.11;83.44
75692;BME280;64307;52.508;6.090;2023-07-13T00:14:05;101252.81;;;17.17;84.08
75692;BME280;64307;52.508;6.090;2023-07-13T00:16:34;101240.41;;;17.15;84.00
75692;BME280;64307;52.508;6.090;2023-07-13T00:18:59;101243.22;;;17.15;84.21
75692;BME280;64307;52.508;6.090;2023-07-13T00:21:25;101244.84;;;17.12;85.11
75692;BME280;64307;52.508;6.090;2023-07-13T00:23:51;101250.50;;;17.12;84.45
75692;BME280;64307;52.508;6.090;2023-07-13T00:26:16;101242.19;;;17.05;84.64
75692;BME280;64307;52.508;6.090;2023-07-13T00:28:42;101247.84;;;17.05;85.13
75692;BME280;64307;52.508;6.090;2023-07-13T00:31:09;101266.66;;;17.08;84.93
75692;BME280;64307;52.508;6.090;2023-07-13T00:33:35;101263.19;;;17.01;85.30
75692;BME280;64307;52.508;6.090;2023-07-13T00:36:00;101266.28;;;17.06;86.10
75692;BME280;64307;52.508;6.090;2023-07-13T00:38:26;101255.31;;;16.92;86.17
75692;BME280;64307;52.508;6.090;2023-07-13T00:40:51;101245.78;;;16.86;86.91
75692;BME280;64307;52.508;6.090;2023-07-13T00:43:20;101254.22;;;16.86;86.84
75692;BME280;64307;52.508;6.090;2023-07-13T00:48:15;101257.16;;;16.79;87.24
75692;BME280;64307;52.508;6.090;2023-07-13T00:50:44;101251.13;;;16.81;87.66
75692;BME280;64307;52.508;6.090;2023-07-13T00:53:10;101245.59;;;16.74;87.38
75692;BME280;64307;52.508;6.090;2023-07-13T00:55:37;101261.94;;;16.82;87.91
75692;BME280;64307;52.508;6.090;2023-07-13T00:58:04;101239.97;;;16.74;88.14
75692;BME280;64307;52.508;6.090;2023-07-13T01:00:32;101248.31;;;16.81;88.42
75692;BME280;64307;52.508;6.090;2023-07-13T01:02:59;101255.56;;;16.78;88.02
75692;BME280;64307;52.508;6.090;2023-07-13T01:05:26;101247.75;;;16.66;89.02
75692;BME280;64307;52.508;6.090;2023-07-13T01:07:52;101263.09;;;16.62;88.54
75692;BME280;64307;52.508;6.090;2023-07-13T01:10:21;101269.94;;;16.61;89.34
75692;BME280;64307;52.508;6.090;2023-07-13T01:12:47;101265.41;;;16.67;89.69
75692;BME280;64307;52.508;6.090;2023-07-13T01:15:41;101275.91;;;16.63;89.44
75692;BME280;64307;52.508;6.090;2023-07-13T01:18:10;101266.72;;;16.62;90.44
75692;BME280;64307;52.508;6.090;2023-07-13T01:20:37;101271.63;;;16.55;90.58
75692;BME280;64307;52.508;6.090;2023-07-13T01:23:07;101276.56;;;16.47;90.78
75692;BME280;64307;52.508;6.090;2023-07-13T01:25:34;101261.78;;;16.43;90.86
75692;BME280;64307;52.508;6.090;2023-07-13T01:28:01;101257.84;;;16.37;91.72
75692;BME280;64307;52.508;6.090;2023-07-13T01:30:29;101250.75;;;16.29;92.14
75692;BME280;64307;52.508;6.090;2023-07-13T01:32:57;101255.03;;;16.37;91.92
75692;BME280;64307;52.508;6.090;2023-07-13T01:35:22;101263.41;;;16.40;92.93
75692;BME280;64307;52.508;6.090;2023-07-13T01:37:47;101266.53;;;16.46;92.46
75692;BME280;64307;52.508;6.090;2023-07-13T01:40:13;101271.03;;;16.40;92.34
75692;BME280;64307;52.508;6.090;2023-07-13T01:42:38;101262.75;;;16.33;93.04
75692;BME280;64307;52.508;6.090;2023-07-13T01:45:04;101265.84;;;16.38;92.62
75692;BME280;64307;52.508;6.090;2023-07-13T01:47:30;101261.88;;;16.36;92.86
75692;BME280;64307;52.508;6.090;2023-07-13T01:49:56;101260.00;;;16.29;93.05
75692;BME280;64307;52.508;6.090;2023-07-13T01:52:21;101267.88;;;16.38;93.39
75692;BME280;64307;52.508;6.090;2023-07-13T01:54:47;101250.06;;;16.21;93.20
75692;BME280;64307;52.508;6.090;2023-07-13T01:57:12;101257.28;;;16.22;93.52
75692;BME280;64307;52.508;6.090;2023-07-13T01:59:37;101268.84;;;16.28;93.96
75692;BME280;64307;52.508;6.090;2023-07-13T02:02:03;101268.91;;;16.24;94.13
75692;BME280;64307;52.508;6.090;2023-07-13T02:04:28;101273.31;;;16.25;93.93
75692;BME280;64307;52.508;6.090;2023-07-13T02:06:55;101273.69;;;16.27;94.08
75692;BME280;64307;52.508;6.090;2023-07-13T02:09:20;101279.31;;;16.27;94.43
75692;BME280;64307;52.508;6.090;2023-07-13T02:11:46;101259.78;;;16.17;94.32
75692;BME280;64307;52.508;6.090;2023-07-13T02:14:11;101253.81;;;16.15;95.32
75692;BME280;64307;52.508;6.090;2023-07-13T02:16:36;101270.53;;;16.22;94.44
75692;BME280;64307;52.508;6.090;2023-07-13T02:19:02;101267.41;;;16.16;93.77
75692;BME280;64307;52.508;6.090;2023-07-13T02:21:27;101266.25;;;16.14;94.40
75692;BME280;64307;52.508;6.090;2023-07-13T02:23:52;101258.25;;;16.12;94.38
75692;BME280;64307;52.508;6.090;2023-07-13T02:26:19;101274.63;;;16.17;94.42
75692;BME280;64307;52.508;6.090;2023-07-13T02:28:44;101265.94;;;16.08;94.12
75692;BME280;64307;52.508;6.090;2023-07-13T02:31:12;101264.41;;;16.04;94.99
75692;BME280;64307;52.508;6.090;2023-07-13T02:33:38;101259.69;;;15.97;93.76
75692;BME280;64307;52.508;6.090;2023-07-13T02:36:03;101279.31;;;16.01;94.18
75692;BME280;64307;52.508;6.090;2023-07-13T02:38:32;101265.63;;;16.03;94.14
75692;BME280;64307;52.508;6.090;2023-07-13T02:41:06;101262.09;;;15.99;93.52
75692;BME280;64307;52.508;6.090;2023-07-13T02:43:32;101270.50;;;15.99;93.92
75692;BME280;64307;52.508;6.090;2023-07-13T02:45:59;101271.03;;;15.90;94.14
75692;BME280;64307;52.508;6.090;2023-07-13T02:48:29;101276.59;;;15.94;94.28
75692;BME280;64307;52.508;6.090;2023-07-13T02:50:54;101262.63;;;15.87;94.82
75692;BME280;64307;52.508;6.090;2023-07-13T02:53:20;101257.00;;;15.87;94.30
75692;BME280;64307;52.508;6.090;2023-07-13T02:55:45;101281.09;;;15.88;94.80
75692;BME280;64307;52.508;6.090;2023-07-13T02:58:12;101269.13;;;15.84;94.94
75692;BME280;64307;52.508;6.090;2023-07-13T03:00:41;101267.63;;;15.76;95.13
75692;BME280;64307;52.508;6.090;2023-07-13T03:03:07;101276.84;;;15.76;95.42
75692;BME280;64307;52.508;6.090;2023-07-13T03:05:32;101270.84;;;15.74;95.33
75692;BME280;64307;52.508;6.090;2023-07-13T03:07:57;101270.13;;;15.67;95.49
75692;BME280;64307;52.508;6.090;2023-07-13T03:10:23;101286.41;;;15.79;95.93
75692;BME280;64307;52.508;6.090;2023-07-13T03:12:48;101278.94;;;15.69;95.98
75692;BME280;64307;52.508;6.090;2023-07-13T03:15:13;101280.16;;;15.68;96.20
75692;BME280;64307;52.508;6.090;2023-07-13T03:17:39;101278.56;;;15.67;96.03
75692;BME280;64307;52.508;6.090;2023-07-13T03:20:04;101288.97;;;15.70;96.55
75692;BME280;64307;52.508;6.090;2023-07-13T03:22:30;101290.59;;;15.67;96.59
75692;BME280;64307;52.508;6.090;2023-07-13T03:24:56;101283.91;;;15.57;96.73
75692;BME280;64307;52.508;6.090;2023-07-13T03:27:21;101298.28;;;15.63;97.08
75692;BME280;64307;52.508;6.090;2023-07-13T03:29:47;101286.34;;;15.55;96.98
75692;BME280;64307;52.508;6.090;2023-07-13T03:32:12;101303.84;;;15.67;97.07
75692;BME280;64307;52.508;6.090;2023-07-13T03:34:37;101297.84;;;15.65;97.00
75692;BME280;64307;52.508;6.090;2023-07-13T03:37:03;101304.22;;;15.69;97.58
75692;BME280;64307;52.508;6.090;2023-07-13T03:39:28;101298.28;;;15.63;97.42
75692;BME280;64307;52.508;6.090;2023-07-13T03:41:53;101295.47;;;15.63;97.34
75692;BME280;64307;52.508;6.090;2023-07-13T03:44:19;101300.75;;;15.57;98.05
75692;BME280;64307;52.508;6.090;2023-07-13T03:46:44;101308.69;;;15.63;97.81
75692;BME280;64307;52.508;6.090;2023-07-13T03:49:10;101313.13;;;15.64;98.30
75692;BME280;64307;52.508;6.090;2023-07-13T03:51:35;101309.03;;;15.68;97.89
75692;BME280;64307;52.508;6.090;2023-07-13T03:54:01;101312.63;;;15.69;97.71
75692;BME280;64307;52.508;6.090;2023-07-13T03:56:28;101315.88;;;15.67;97.95
75692;BME280;64307;52.508;6.090;2023-07-13T03:58:53;101322.16;;;15.78;97.50
75692;BME280;64307;52.508;6.090;2023-07-13T04:01:20;101323.41;;;15.74;97.19
75692;BME280;64307;52.508;6.090;2023-07-13T04:03:47;101329.78;;;15.78;97.38
75692;BME280;64307;52.508;6.090;2023-07-13T04:06:17;101320.63;;;15.70;97.85
75692;BME280;64307;52.508;6.090;2023-07-13T04:08:47;101304.59;;;15.71;97.35
75692;BME280;64307;52.508;6.090;2023-07-13T04:11:14;101321.31;;;15.81;97.30
75692;BME280;64307;52.508;6.090;2023-07-13T04:13:39;101315.25;;;15.83;96.74
75692;BME280;64307;52.508;6.090;2023-07-13T04:16:05;101321.16;;;15.92;96.58
75692;BME280;64307;52.508;6.090;2023-07-13T04:18:30;101338.34;;;15.97;96.63
75692;BME280;64307;52.508;6.090;2023-07-13T04:20:55;101327.63;;;15.89;96.98
75692;BME280;64307;52.508;6.090;2023-07-13T04:23:21;101337.94;;;15.99;96.80
75692;BME280;64307;52.508;6.090;2023-07-13T04:25:47;101327.06;;;16.01;96.73
75692;BME280;64307;52.508;6.090;2023-07-13T04:28:15;101330.19;;;16.86;92.89
75692;BME280;64307;52.508;6.090;2023-07-13T04:30:40;101340.00;;;17.21;90.54
75692;BME280;64307;52.508;6.090;2023-07-13T04:33:05;101340.19;;;16.64;93.01
75692;BME280;64307;52.508;6.090;2023-07-13T04:35:31;101342.75;;;16.55;93.64
75692;BME280;64307;52.508;6.090;2023-07-13T04:37:56;101335.84;;;16.60;93.37
75692;BME280;64307;52.508;6.090;2023-07-13T04:40:21;101341.53;;;16.56;93.74
75692;BME280;64307;52.508;6.090;2023-07-13T04:42:47;101349.47;;;17.31;89.69
75692;BME280;64307;52.508;6.090;2023-07-13T04:45:14;101337.19;;;17.41;88.73
75692;BME280;64307;52.508;6.090;2023-07-13T04:47:40;101340.84;;;18.00;86.29
75692;BME280;64307;52.508;6.090;2023-07-13T04:50:06;101339.94;;;17.25;88.79
75692;BME280;64307;52.508;6.090;2023-07-13T04:52:33;101343.59;;;17.84;88.04
75692;BME280;64307;52.508;6.090;2023-07-13T04:54:59;101332.16;;;19.97;76.85
75692;BME280;64307;52.508;6.090;2023-07-13T04:57:25;101346.31;;;21.66;70.12
75692;BME280;64307;52.508;6.090;2023-07-13T04:59:51;101346.56;;;22.24;66.25
75692;BME280;64307;52.508;6.090;2023-07-13T05:02:16;101350.34;;;22.51;64.62
75692;BME280;64307;52.508;6.090;2023-07-13T05:04:41;101355.13;;;23.30;62.05
75692;BME280;64307;52.508;6.090;2023-07-13T05:07:07;101352.19;;;22.85;63.01
75692;BME280;64307;52.508;6.090;2023-07-13T05:09:32;101348.97;;;22.65;63.57
75692;BME280;64307;52.508;6.090;2023-07-13T05:11:57;101359.53;;;24.04;59.44
75692;BME280;64307;52.508;6.090;2023-07-13T05:14:24;101357.19;;;23.75;59.49
75692;BME280;64307;52.508;6.090;2023-07-13T05:16:49;101360.72;;;25.04;55.95
75692;BME280;64307;52.508;6.090;2023-07-13T05:19:14;101367.19;;;25.14;55.06
75692;BME280;64307;52.508;6.090;2023-07-13T05:21:39;101357.22;;;25.57;54.15
75692;BME280;64307;52.508;6.090;2023-07-13T05:24:07;101371.28;;;25.60;53.60
75692;BME280;64307;52.508;6.090;2023-07-13T05:26:32;101375.13;;;25.72;53.74
75692;BME280;64307;52.508;6.090;2023-07-13T05:28:59;101376.50;;;24.91;55.08
75692;BME280;64307;52.508;6.090;2023-07-13T05:31:24;101370.16;;;25.43;54.01
75692;BME280;64307;52.508;6.090;2023-07-13T05:33:50;101364.50;;;25.34;54.18
75692;BME280;64307;52.508;6.090;2023-07-13T05:36:17;101380.50;;;25.41;53.52
75692;BME280;64307;52.508;6.090;2023-07-13T05:38:42;101388.03;;;26.49;51.46
75692;BME280;64307;52.508;6.090;2023-07-13T05:41:08;101379.59;;;25.49;53.12
75692;BME280;64307;52.508;6.090;2023-07-13T05:43:33;101390.56;;;23.75;58.55
75692;BME280;64307;52.508;6.090;2023-07-13T05:45:59;101382.84;;;25.42;54.57
75692;BME280;64307;52.508;6.090;2023-07-13T05:48:25;101388.41;;;26.13;52.96
75692;BME280;64307;52.508;6.090;2023-07-13T05:50:51;101392.53;;;25.97;53.14
75692;BME280;64307;52.508;6.090;2023-07-13T05:53:17;101392.88;;;27.68;48.18
75692;BME280;64307;52.508;6.090;2023-07-13T05:55:43;101396.38;;;27.77;48.56
75692;BME280;64307;52.508;6.090;2023-07-13T05:58:09;101400.00;;;27.17;48.94
75692;BME280;64307;52.508;6.090;2023-07-13T06:00:35;101407.28;;;27.53;48.79
75692;BME280;64307;52.508;6.090;2023-07-13T06:03:00;101398.22;;;27.80;47.78
75692;BME280;64307;52.508;6.090;2023-07-13T06:05:25;101401.03;;;27.75;47.50
75692;BME280;64307;52.508;6.090;2023-07-13T06:07:52;101411.25;;;28.27;47.55
75692;BME280;64307;52.508;6.090;2023-07-13T06:10:17;101390.72;;;26.88;49.95
75692;BME280;64307;52.508;6.090;2023-07-13T06:12:43;101408.09;;;26.69;51.39
75692;BME280;64307;52.508;6.090;2023-07-13T06:15:08;101403.84;;;27.49;48.91
75692;BME280;64307;52.508;6.090;2023-07-13T06:17:33;101406.72;;;26.80;50.43
75692;BME280;64307;52.508;6.090;2023-07-13T06:19:59;101411.84;;;26.17;52.60
75692;BME280;64307;52.508;6.090;2023-07-13T06:22:24;101409.00;;;26.75;51.06
75692;BME280;64307;52.508;6.090;2023-07-13T06:24:49;101413.88;;;28.30;47.74
75692;BME280;64307;52.508;6.090;2023-07-13T06:27:14;101403.59;;;28.44;46.61
75692;BME280;64307;52.508;6.090;2023-07-13T06:29:40;101428.91;;;27.19;50.52
75692;BME280;64307;52.508;6.090;2023-07-13T06:32:06;101409.66;;;26.70;50.95
75692;BME280;64307;52.508;6.090;2023-07-13T06:34:32;101424.91;;;29.00;46.76
75692;BME280;64307;52.508;6.090;2023-07-13T06:36:57;101417.69;;;28.48;47.22
75692;BME280;64307;52.508;6.090;2023-07-13T06:39:23;101424.00;;;28.00;48.58
75692;BME280;64307;52.508;6.090;2023-07-13T06:41:49;101416.72;;;27.59;49.49
75692;BME280;64307;52.508;6.090;2023-07-13T06:44:14;101428.44;;;25.51;55.26
75692;BME280;64307;52.508;6.090;2023-07-13T06:46:39;101433.72;;;24.09;59.72
75692;BME280;64307;52.508;6.090;2023-07-13T06:49:05;101430.78;;;24.46;59.08
75692;BME280;64307;52.508;6.090;2023-07-13T06:51:30;101425.94;;;27.14;52.39
75692;BME280;64307;52.508;6.090;2023-07-13T06:53:55;101416.28;;;27.66;50.27
75692;BME280;64307;52.508;6.090;2023-07-13T06:56:21;101428.72;;;28.55;48.02
75692;BME280;64307;52.508;6.090;2023-07-13T06:58:46;101418.50;;;30.73;42.34
75692;BME280;64307;52.508;6.090;2023-07-13T07:01:13;101432.22;;;28.13;47.74
75692;BME280;64307;52.508;6.090;2023-07-13T07:03:38;101437.91;;;27.12;50.08
75692;BME280;64307;52.508;6.090;2023-07-13T07:06:19;101441.56;;;24.51;57.34
75692;BME280;64307;52.508;6.090;2023-07-13T07:08:44;101437.84;;;25.43;56.13
75692;BME280;64307;52.508;6.090;2023-07-13T07:11:13;101435.50;;;26.61;52.08
75692;BME280;64307;52.508;6.090;2023-07-13T07:13:39;101456.91;;;24.35;58.63
75692;BME280;64307;52.508;6.090;2023-07-13T07:16:06;101445.19;;;22.94;63.42
75692;BME280;64307;52.508;6.090;2023-07-13T07:18:32;101436.63;;;22.85;64.18
75692;BME280;64307;52.508;6.090;2023-07-13T07:20:57;101443.69;;;26.25;54.46
75692;BME280;64307;52.508;6.090;2023-07-13T07:23:22;101451.53;;;24.97;58.10
75692;BME280;64307;52.508;6.090;2023-07-13T07:25:48;101440.66;;;23.54;60.65
75692;BME280;64307;52.508;6.090;2023-07-13T07:28:16;101440.97;;;24.01;60.48
75692;BME280;64307;52.508;6.090;2023-07-13T07:30:45;101436.84;;;26.95;51.79
75692;BME280;64307;52.508;6.090;2023-07-13T07:33:11;101434.09;;;27.55;49.93
75692;BME280;64307;52.508;6.090;2023-07-13T07:35:36;101444.13;;;24.12;58.89
75692;BME280;64307;52.508;6.090;2023-07-13T07:38:01;101441.25;;;22.39;65.52
75692;BME280;64307;52.508;6.090;2023-07-13T07:40:27;101433.59;;;25.05;56.95
75692;BME280;64307;52.508;6.090;2023-07-13T07:42:52;101438.47;;;27.91;49.55
75692;BME280;64307;52.508;6.090;2023-07-13T07:45:18;101429.19;;;26.87;51.13
75692;BME280;64307;52.508;6.090;2023-07-13T07:47:43;101449.41;;;24.65;57.60
75692;BME280;64307;52.508;6.090;2023-07-13T07:50:09;101436.53;;;23.46;60.37
75692;BME280;64307;52.508;6.090;2023-07-13T07:52:36;101427.84;;;24.73;59.06
75692;BME280;64307;52.508;6.090;2023-07-13T07:55:04;101431.53;;;27.03;52.95
75692;BME280;64307;52.508;6.090;2023-07-13T07:57:30;101431.84;;;26.61;52.52
75692;BME280;64307;52.508;6.090;2023-07-13T07:59:57;101429.03;;;27.45;49.30
75692;BME280;64307;52.508;6.090;2023-07-13T08:02:24;101445.22;;;27.33;50.18
75692;BME280;64307;52.508;6.090;2023-07-13T08:04:49;101433.50;;;26.97;49.70
75692;BME280;64307;52.508;6.090;2023-07-13T08:07:14;101448.16;;;26.02;51.10
75692;BME280;64307;52.508;6.090;2023-07-13T08:09:40;101443.91;;;25.59;52.64
75692;BME280;64307;52.508;6.090;2023-07-13T08:12:05;101448.41;;;25.18;54.24
75692;BME280;64307;52.508;6.090;2023-07-13T08:14:30;101440.75;;;24.41;56.27
75692;BME280;64307;52.508;6.090;2023-07-13T08:16:56;101438.88;;;23.56;58.93
75692;BME280;64307;52.508;6.090;2023-07-13T08:19:21;101441.38;;;23.36;60.17
75692;BME280;64307;52.508;6.090;2023-07-13T08:21:46;101436.25;;;22.43;61.68
75692;BME280;64307;52.508;6.090;2023-07-13T08:24:13;101449.38;;;22.49;62.55
75692;BME280;64307;52.508;6.090;2023-07-13T08:26:39;101449.91;;;22.35;63.84
75692;BME280;64307;52.508;6.090;2023-07-13T08:29:04;101442.13;;;21.37;66.65
75692;BME280;64307;52.508;6.090;2023-07-13T08:31:30;101448.41;;;21.06;69.53
75692;BME280;64307;52.508;6.090;2023-07-13T08:33:55;101473.47;;;20.42;75.50
75692;BME280;64307;52.508;6.090;2023-07-13T08:36:20;101470.38;;;19.79;81.35
75692;BME280;64307;52.508;6.090;2023-07-13T08:38:45;101473.50;;;19.04;82.27
75692;BME280;64307;52.508;6.090;2023-07-13T08:41:14;101473.06;;;19.21;83.84
75692;BME280;64307;52.508;6.090;2023-07-13T08:43:41;101457.63;;;19.42;84.29
75692;BME280;64307;52.508;6.090;2023-07-13T08:46:34;101461.59;;;19.60;84.80
75692;BME280;64307;52.508;6.090;2023-07-13T08:49:21;101477.69;;;19.47;85.04
75692;BME280;64307;52.508;6.090;2023-07-13T08:51:57;101474.47;;;20.06;84.51
75692;BME280;64307;52.508;6.090;2023-07-13T08:54:37;101464.44;;;19.89;83.60
75692;BME280;64307;52.508;6.090;2023-07-13T08:57:21;101465.03;;;20.79;82.13
75692;BME280;64307;52.508;6.090;2023-07-13T08:59:50;101476.06;;;21.62;79.16
75692;BME280;64307;52.508;6.090;2023-07-13T09:02:41;101478.16;;;21.49;74.72
75692;BME280;64307;52.508;6.090;2023-07-13T09:05:14;101490.00;;;21.81;75.64
75692;BME280;64307;52.508;6.090;2023-07-13T09:10:31;101493.34;;;21.55;75.31
75692;BME280;64307;52.508;6.090;2023-07-13T09:13:13;101486.16;;;21.75;73.12
75692;BME280;64307;52.508;6.090;2023-07-13T09:15:41;101491.03;;;21.62;72.57
75692;BME280;64307;52.508;6.090;2023-07-13T09:18:10;101495.41;;;22.23;68.74
75692;BME280;64307;52.508;6.090;2023-07-13T09:20:46;101490.53;;;21.89;71.03
75692;BME280;64307;52.508;6.090;2023-07-13T09:23:19;101496.28;;;21.51;69.60
75692;BME280;64307;52.508;6.090;2023-07-13T09:25:48;101499.22;;;22.50;69.02
75692;BME280;64307;52.508;6.090;2023-07-13T09:33:10;101493.72;;;22.56;67.97
75692;BME280;64307;52.508;6.090;2023-07-13T09:35:36;101484.72;;;23.49;65.60
75692;BME280;64307;52.508;6.090;2023-07-13T09:38:16;101490.91;;;24.57;61.47
75692;BME280;64307;52.508;6.090;2023-07-13T09:44:01;101479.72;;;23.99;62.39
75692;BME280;64307;52.508;6.090;2023-07-13T09:46:26;101480.47;;;25.04;58.84
75692;BME280;64307;52.508;6.090;2023-07-13T09:48:52;101478.16;;;26.50;54.95
75692;BME280;64307;52.508;6.090;2023-07-13T09:51:17;101470.97;;;26.55;53.85
75692;BME280;64307;52.508;6.090;2023-07-13T09:53:44;101477.88;;;25.95;56.38
75692;BME280;64307;52.508;6.090;2023-07-13T09:56:24;101489.66;;;24.49;56.34
75692;BME280;64307;52.508;6.090;2023-07-13T09:58:50;101483.59;;;23.47;58.39
75692;BME280;64307;52.508;6.090;2023-07-13T10:01:15;101494.09;;;22.89;61.57
75692;BME280;64307;52.508;6.090;2023-07-13T10:03:53;101501.91;;;22.54;63.47
75692;BME280;64307;52.508;6.090;2023-07-13T10:06:21;101515.22;;;21.54;68.68
75692;BME280;64307;52.508;6.090;2023-07-13T10:08:49;101565.56;;;21.25;74.34
75692;BME280;64307;52.508;6.090;2023-07-13T10:11:21;101593.38;;;18.40;85.92
75692;BME280;64307;52.508;6.090;2023-07-13T10:13:52;101574.22;;;18.32;87.67
75692;BME280;64307;52.508;6.090;2023-07-13T10:16:21;101576.31;;;18.28;87.24
75692;BME280;64307;52.508;6.090;2023-07-13T10:18:53;101560.19;;;18.28;88.90
75692;BME280;64307;52.508;6.090;2023-07-13T10:21:20;101549.88;;;18.61;86.59
75692;BME280;64307;52.508;6.090;2023-07-13T10:23:52;101548.84;;;18.51;87.98
75692;BME280;64307;52.508;6.090;2023-07-13T10:26:23;101552.16;;;18.86;86.63
75692;BME280;64307;52.508;6.090;2023-07-13T10:28:54;101557.84;;;19.02;88.90
75692;BME280;64307;52.508;6.090;2023-07-13T10:31:21;101562.00;;;19.65;86.88
75692;BME280;64307;52.508;6.090;2023-07-13T10:33:47;101568.31;;;20.01;85.93
75692;BME280;64307;52.508;6.090;2023-07-13T10:36:31;101556.53;;;19.58;85.08
75692;BME280;64307;52.508;6.090;2023-07-13T10:39:01;101556.00;;;19.47;89.83
75692;BME280;64307;52.508;6.090;2023-07-13T10:41:30;101546.56;;;19.37;88.96
75692;BME280;64307;52.508;6.090;2023-07-13T10:43:56;101560.84;;;19.63;88.40
75692;BME280;64307;52.508;6.090;2023-07-13T10:46:25;101549.53;;;19.79;88.69
75692;BME280;64307;52.508;6.090;2023-07-13T10:48:58;101554.59;;;19.71;90.59
75692;BME280;64307;52.508;6.090;2023-07-13T10:51:24;101556.78;;;19.80;87.97
75692;BME280;64307;52.508;6.090;2023-07-13T10:57:26;101561.00;;;20.04;86.82
75692;BME280;64307;52.508;6.090;2023-07-13T11:00:14;101561.06;;;20.16;86.50
75692;BME280;64307;52.508;6.090;2023-07-13T11:02:40;101553.25;;;20.78;84.31
75692;BME280;64307;52.508;6.090;2023-07-13T11:05:21;101568.19;;;21.32;80.80
75692;BME280;64307;52.508;6.090;2023-07-13T11:07:54;101560.50;;;21.20;82.95
75692;BME280;64307;52.508;6.090;2023-07-13T11:10:46;101577.59;;;21.29;83.05
75692;BME280;64307;52.508;6.090;2023-07-13T11:13:36;101572.63;;;20.38;85.49
75692;BME280;64307;52.508;6.090;2023-07-13T11:16:12;101561.19;;;19.81;84.93
75692;BME280;64307;52.508;6.090;2023-07-13T11:18:38;101571.53;;;19.87;87.02
75692;BME280;64307;52.508;6.090;2023-07-13T11:21:36;101578.97;;;19.65;87.80
75692;BME280;64307;52.508;6.090;2023-07-13T11:24:21;101558.84;;;19.11;88.54
75692;BME280;64307;52.508;6.090;2023-07-13T11:31:40;101564.03;;;19.48;87.30
75692;BME280;64307;52.508;6.090;2023-07-13T11:34:14;101565.28;;;19.47;87.26
75692;BME280;64307;52.508;6.090;2023-07-13T11:36:43;101566.50;;;19.95;83.03
75692;BME280;64307;52.508;6.090;2023-07-13T11:39:21;101555.31;;;20.20;84.84
75692;BME280;64307;52.508;6.090;2023-07-13T11:41:55;101565.88;;;20.48;83.85
75692;BME280;64307;52.508;6.090;2023-07-13T11:44:25;101569.19;;;20.30;81.11
75692;BME280;64307;52.508;6.090;2023-07-13T11:46:53;101570.59;;;20.80;81.74
75692;BME280;64307;52.508;6.090;2023-07-13T11:49:23;101563.28;;;21.70;79.78
75692;BME280;64307;52.508;6.090;2023-07-13T11:51:50;101543.91;;;22.37;76.47
75692;BME280;64307;52.508;6.090;2023-07-13T11:54:29;101558.81;;;21.94;74.93
75692;BME280;64307;52.508;6.090;2023-07-13T11:56:57;101555.19;;;22.50;74.89
75692;BME280;64307;52.508;6.090;2023-07-13T11:59:25;101553.72;;;23.41;71.58
75692;BME280;64307;52.508;6.090;2023-07-13T12:01:53;101539.28;;;23.93;70.80
75692;BME280;64307;52.508;6.090;2023-07-13T12:04:25;101543.31;;;24.32;69.97
75692;BME280;64307;52.508;6.090;2023-07-13T12:06:56;101538.03;;;24.67;65.04
75692;BME280;64307;52.508;6.090;2023-07-13T12:09:21;101542.31;;;24.80;63.79
75692;BME280;64307;52.508;6.090;2023-07-13T12:11:50;101544.84;;;23.97;59.54
75692;BME280;64307;52.508;6.090;2023-07-13T12:14:18;101562.19;;;23.72;60.76
75692;BME280;64307;52.508;6.090;2023-07-13T12:16:45;101556.78;;;23.65;56.94
75692;BME280;64307;52.508;6.090;2023-07-13T12:19:22;101556.88;;;24.01;58.86
75692;BME280;64307;52.508;6.090;2023-07-13T12:21:48;101558.94;;;23.42;58.86
75692;BME280;64307;52.508;6.090;2023-07-13T12:24:16;101572.66;;;23.35;60.64
75692;BME280;64307;52.508;6.090;2023-07-13T12:26:42;101571.31;;;23.27;58.12
75692;BME280;64307;52.508;6.090;2023-07-13T12:29:07;101568.06;;;23.86;58.60
75692;BME280;64307;52.508;6.090;2023-07-13T12:31:35;101568.91;;;24.59;57.38
75692;BME280;64307;52.508;6.090;2023-07-13T12:34:13;101568.44;;;24.61;55.46
75692;BME280;64307;52.508;6.090;2023-07-13T12:36:59;101554.38;;;24.21;56.30
75692;BME280;64307;52.508;6.090;2023-07-13T12:39:34;101567.97;;;24.08;55.26
75692;BME280;64307;52.508;6.090;2023-07-13T12:44:46;101570.81;;;24.08;54.32
75692;BME280;64307;52.508;6.090;2023-07-13T12:47:13;101564.03;;;24.05;53.72
75692;BME280;64307;52.508;6.090;2023-07-13T12:49:43;101578.88;;;23.51;53.38
75692;BME280;64307;52.508;6.090;2023-07-13T12:52:19;101571.28;;;24.24;54.34
75692;BME280;64307;52.508;6.090;2023-07-13T12:55:07;101576.69;;;24.13;54.13
75692;BME280;64307;52.508;6.090;2023-07-13T12:58:00;101580.06;;;23.32;54.67
75692;BME280;64307;52.508;6.090;2023-07-13T13:00:31;101568.78;;;24.17;54.19
75692;BME280;64307;52.508;6.090;2023-07-13T13:03:24;101578.41;;;24.20;52.56
75692;BME280;64307;52.508;6.090;2023-07-13T13:06:03;101583.81;;;24.54;50.89
75692;BME280;64307;52.508;6.090;2023-07-13T13:08:34;101582.69;;;24.79;50.39
75692;BME280;64307;52.508;6.090;2023-07-13T13:11:01;101580.47;;;24.47;50.96
75692;BME280;64307;52.508;6.090;2023-07-13T13:13:27;101580.63;;;24.16;51.61
75692;BME280;64307;52.508;6.090;2023-07-13T13:15:52;101581.13;;;24.23;50.65
75692;BME280;64307;52.508;6.090;2023-07-13T13:18:21;101597.69;;;24.16;51.84
75692;BME280;64307;52.508;6.090;2023-07-13T13:20:47;101589.66;;;24.78;51.00